sensor_id;sensor_type;location;lat;lon;timestamp;pressure;altitude;pressure_sealevel;temperature;humidity
32081;BME280;18593;51.426;7.030;2022-07-23T00:00:22;100762.38;;;17.19;100.00
32081;BME280;18593;51.426;7.030;2022-07-23T00:02:50;100747.38;;;17.15;100.00
32081;BME280;18593;51.426;7.030;2022-07-23T00:05:17;100742.31;;;17.12;100.00
32081;BME280;18593;51.426;7.030;2022-07-23T00:07:44;100742.75;;;17.09;100.00
32081;BME280;18593;51.426;7.030;2022-07-23T00:10:12;100745.28;;;17.11;100.00
32081;BME280;18593;51.426;7.030;2022-07-23T00:12:40;100749.47;;;17.13;100.00
32081;BME280;18593;51.426;7.030;2022-07-23T00:15:09;100747.41;;;17.09;100.00
32081;BME280;18593;51.426;7.030;2022-07-23T00:17:36;100749.53;;;17.07;100.00
32081;BME280;18593;51.426;7.030;2022-07-23T00:20:07;100740.47;;;17.06;100.00
32081;BME280;18593;51.426;7.030;2022-07-23T00:22:34;100741.06;;;17.08;100.00
32081;BME280;18593;51.426;7.030;2022-07-23T00:25:01;100736.84;;;17.06;100.00
32081;BME280;18593;51.426;7.030;2022-07-23T00:27:29;100742.59;;;17.04;100.00
32081;BME280;18593;51.426;7.030;2022-07-23T00:29:56;100741.97;;;17.02;100.00
32081;BME280;18593;51.426;7.030;2022-07-23T00:32:23;100748.75;;;16.99;100.00
32081;BME280;18593;51.426;7.030;2022-07-23T00:34:50;100735.19;;;16.98;100.00
32081;BME280;18593;51.426;7.030;2022-07-23T00:37:19;100733.31;;;16.98;100.00
32081;BME280;18593;51.426;7.030;2022-07-23T00:39:46;100737.72;;;17.06;100.00
32081;BME280;18593;51.426;7.030;2022-07-23T00:42:13;100738.53;;;17.07;100.00
32081;BME280;18593;51.426;7.030;2022-07-23T00:44:41;100744.72;;;17.02;100.00
32081;BME280;18593;51.426;7.030;2022-07-23T00:47:09;100734.38;;;16.97;100.00
32081;BME280;18593;51.426;7.030;2022-07-23T00:49:36;100723.59;;;16.96;100.00
32081;BME280;18593;51.426;7.030;2022-07-23T00:52:04;100719.16;;;16.95;100.00
32081;BME280;18593;51.426;7.030;2022-07-23T00:54:33;100709.84;;;16.96;100.00
32081;BME280;18593;51.426;7.030;2022-07-23T00:57:00;100719.78;;;16.97;100.00
32081;BME280;18593;51.426;7.030;2022-07-23T00:59:28;100720.63;;;16.97;100.00
32081;BME280;18593;51.426;7.030;2022-07-23T01:01:57;100726.81;;;16.93;100.00
32081;BME280;18593;51.426;7.030;2022-07-23T01:04:24;100726.81;;;16.93;100.00
32081;BME280;18593;51.426;7.030;2022-07-23T01:06:52;100723.44;;;16.91;100.00
32081;BME280;18593;51.426;7.030;2022-07-23T01:09:19;100721.72;;;16.90;100.00
32081;BME280;18593;51.426;7.030;2022-07-23T01:11:48;100725.56;;;16.89;100.00
32081;BME280;18593;51.426;7.030;2022-07-23T01:14:17;100729.38;;;16.88;100.00
32081;BME280;18593;51.426;7.030;2022-07-23T01:16:47;100731.06;;;16.89;100.00
32081;BME280;18593;51.426;7.030;2022-07-23T01:19:16;100724.28;;;16.85;100.00
32081;BME280;18593;51.426;7.030;2022-07-23T01:21:46;100727.22;;;16.90;100.00
32081;BME280;18593;51.426;7.030;2022-07-23T01:24:16;100725.56;;;16.89;100.00
32081;BME280;18593;51.426;7.030;2022-07-23T01:26:53;100732.31;;;16.93;100.00
32081;BME280;18593;51.426;7.030;2022-07-23T01:29:21;100734.25;;;16.86;100.00
32081;BME280;18593;51.426;7.030;2022-07-23T01:31:49;100738.28;;;16.83;100.00
32081;BME280;18593;51.426;7.030;2022-07-23T01:34:16;100725.59;;;16.82;100.00
32081;BME280;18593;51.426;7.030;2022-07-23T01:36:43;100728.34;;;16.82;100.00
32081;BME280;18593;51.426;7.030;2022-07-23T01:39:12;100724.31;;;16.78;100.00
32081;BME280;18593;51.426;7.030;2022-07-23T01:41:41;100728.56;;;16.74;100.00
32081;BME280;18593;51.426;7.030;2022-07-23T01:44:08;100723.28;;;16.72;100.00
32081;BME280;18593;51.426;7.030;2022-07-23T01:46:38;100729.84;;;16.71;100.00
32081;BME280;18593;51.426;7.030;2022-07-23T01:49:06;100726.47;;;16.69;100.00
32081;BME280;18593;51.426;7.030;2022-07-23T01:51:51;100722.06;;;16.68;100.00
32081;BME280;18593;51.426;7.030;2022-07-23T01:54:34;100716.97;;;16.65;100.00
32081;BME280;18593;51.426;7.030;2022-07-23T01:57:06;100713.63;;;16.63;100.00
32081;BME280;18593;51.426;7.030;2022-07-23T01:59:34;100705.78;;;16.60;100.00
32081;BME280;18593;51.426;7.030;2022-07-23T02:02:02;100703.28;;;16.58;100.00
32081;BME280;18593;51.426;7.030;2022-07-23T02:04:31;100709.63;;;16.59;100.00
32081;BME280;18593;51.426;7.030;2022-07-23T02:07:01;100710.47;;;16.59;100.00
32081;BME280;18593;51.426;7.030;2022-07-23T02:09:29;100720.00;;;16.57;100.00
32081;BME280;18593;51.426;7.030;2022-07-23T02:11:56;100711.75;;;16.57;100.00
32081;BME280;18593;51.426;7.030;2022-07-23T02:14:25;100717.47;;;16.55;100.00
32081;BME280;18593;51.426;7.030;2022-07-23T02:16:52;100722.75;;;16.57;100.00
32081;BME280;18593;51.426;7.030;2022-07-23T02:19:19;100717.03;;;16.58;100.00
32081;BME280;18593;51.426;7.030;2022-07-23T02:21:47;100715.13;;;16.59;100.00
32081;BME280;18593;51.426;7.030;2022-07-23T02:24:14;100715.13;;;16.59;100.00
32081;BME280;18593;51.426;7.030;2022-07-23T02:26:42;100709.63;;;16.59;100.00
32081;BME280;18593;51.426;7.030;2022-07-23T02:29:11;100710.91;;;16.56;100.00
32081;BME280;18593;51.426;7.030;2022-07-23T02:31:39;100711.75;;;16.57;100.00
32081;BME280;18593;51.426;7.030;2022-07-23T02:34:07;100712.19;;;16.54;100.00
32081;BME280;18593;51.426;7.030;2022-07-23T02:36:37;100705.66;;;16.48;100.00
32081;BME280;18593;51.426;7.030;2022-07-23T02:39:05;100713.72;;;16.43;100.00
32081;BME280;18593;51.426;7.030;2022-07-23T02:41:34;100714.38;;;16.38;100.00
32081;BME280;18593;51.426;7.030;2022-07-23T02:44:02;100715.88;;;16.34;100.00
32081;BME280;18593;51.426;7.030;2022-07-23T02:46:29;100720.53;;;16.27;100.00
32081;BME280;18593;51.426;7.030;2022-07-23T02:48:58;100714.44;;;16.25;100.00
32081;BME280;18593;51.426;7.030;2022-07-23T02:51:26;100719.72;;;16.20;100.00
32081;BME280;18593;51.426;7.030;2022-07-23T02:53:58;100710.22;;;16.16;100.00
32081;BME280;18593;51.426;7.030;2022-07-23T02:56:25;100707.94;;;16.13;100.00
32081;BME280;18593;51.426;7.030;2022-07-23T02:58:52;100714.06;;;16.15;100.00
32081;BME280;18593;51.426;7.030;2022-07-23T03:01:20;100706.84;;;16.14;100.00
32081;BME280;18593;51.426;7.030;2022-07-23T03:03:47;100709.41;;;16.15;100.00
32081;BME280;18593;51.426;7.030;2022-07-23T03:06:16;100713.19;;;16.14;100.00
32081;BME280;18593;51.426;7.030;2022-07-23T03:08:43;100710.22;;;16.16;100.00
32081;BME280;18593;51.426;7.030;2022-07-23T03:11:11;100714.84;;;16.22;100.00
32081;BME280;18593;51.426;7.030;2022-07-23T03:13:40;100710.44;;;16.21;100.00
32081;BME280;18593;51.426;7.030;2022-07-23T03:16:07;100707.69;;;16.21;100.00
32081;BME280;18593;51.426;7.030;2022-07-23T03:18:36;100706.59;;;16.22;100.00
32081;BME280;18593;51.426;7.030;2022-07-23T03:21:04;100696.69;;;16.21;100.00
32081;BME280;18593;51.426;7.030;2022-07-23T03:23:32;100705.59;;;16.16;100.00
32081;BME280;18593;51.426;7.030;2022-07-23T03:25:59;100697.16;;;16.11;100.00
32081;BME280;18593;51.426;7.030;2022-07-23T03:28:27;100703.53;;;16.05;100.00
32081;BME280;18593;51.426;7.030;2022-07-23T03:30:54;100707.53;;;16.02;100.00
32081;BME280;18593;51.426;7.030;2022-07-23T03:33:21;100700.16;;;15.96;100.00
32081;BME280;18593;51.426;7.030;2022-07-23T03:35:49;100708.63;;;15.88;100.00
32081;BME280;18593;51.426;7.030;2022-07-23T03:38:23;100711.19;;;15.83;100.00
32081;BME280;18593;51.426;7.030;2022-07-23T03:40:52;100715.41;;;15.79;100.00
32081;BME280;18593;51.426;7.030;2022-07-23T03:43:19;100708.22;;;15.78;100.00
32081;BME280;18593;51.426;7.030;2022-07-23T03:45:46;100709.06;;;15.72;100.00
32081;BME280;18593;51.426;7.030;2022-07-23T03:48:14;100711.59;;;15.67;100.00
32081;BME280;18593;51.426;7.030;2022-07-23T03:50:43;100720.88;;;15.66;100.00
32081;BME280;18593;51.426;7.030;2022-07-23T03:53:11;100717.53;;;15.63;100.00
32081;BME280;18593;51.426;7.030;2022-07-23T03:55:38;100722.38;;;15.61;100.00
32081;BME280;18593;51.426;7.030;2022-07-23T03:58:06;100712.91;;;15.57;100.00
32081;BME280;18593;51.426;7.030;2022-07-23T04:00:34;100722.59;;;15.60;100.00
32081;BME280;18593;51.426;7.030;2022-07-23T04:03:01;100722.59;;;15.60;100.00
32081;BME280;18593;51.426;7.030;2022-07-23T04:05:29;100728.28;;;15.58;100.00
32081;BME280;18593;51.426;7.030;2022-07-23T04:11:02;100732.72;;;15.59;100.00
32081;BME280;18593;51.426;7.030;2022-07-23T04:13:31;100730.81;;;15.60;100.00
32081;BME280;18593;51.426;7.030;2022-07-23T04:16:00;100732.28;;;15.62;100.00
32081;BME280;18593;51.426;7.030;2022-07-23T04:18:28;100731.88;;;15.66;100.00
32081;BME280;18593;51.426;7.030;2022-07-23T04:21:07;100733.31;;;15.68;100.00
32081;BME280;18593;51.426;7.030;2022-07-23T04:23:36;100737.31;;;15.72;100.00
32081;BME280;18593;51.426;7.030;2022-07-23T04:26:03;100734.41;;;15.74;100.00
32081;BME280;18593;51.426;7.030;2022-07-23T04:28:32;100732.28;;;15.76;100.00
32081;BME280;18593;51.426;7.030;2022-07-23T04:31:01;100728.31;;;15.78;100.00
32081;BME280;18593;51.426;7.030;2022-07-23T04:33:29;100730.59;;;15.81;100.00
32081;BME280;18593;51.426;7.030;2022-07-23T04:35:59;100735.66;;;15.85;100.00
32081;BME280;18593;51.426;7.030;2022-07-23T04:38:27;100738.84;;;15.88;100.00
32081;BME280;18593;51.426;7.030;2022-07-23T04:40:58;100739.00;;;15.93;100.00
32081;BME280;18593;51.426;7.030;2022-07-23T04:43:26;100744.28;;;16.01;100.00
32081;BME280;18593;51.426;7.030;2022-07-23T04:45:55;100755.03;;;16.10;100.00
32081;BME280;18593;51.426;7.030;2022-07-23T04:48:23;100754.78;;;16.18;100.00
32081;BME280;18593;51.426;7.030;2022-07-23T04:50:58;100748.63;;;16.29;100.00
32081;BME280;18593;51.426;7.030;2022-07-23T04:53:28;100745.66;;;16.37;100.00
32081;BME280;18593;51.426;7.030;2022-07-23T04:56:00;100747.97;;;16.40;100.00
32081;BME280;18593;51.426;7.030;2022-07-23T04:58:29;100751.13;;;16.44;100.00
32081;BME280;18593;51.426;7.030;2022-07-23T05:00:59;100756.13;;;16.54;100.00
32081;BME280;18593;51.426;7.030;2022-07-23T05:03:28;100762.88;;;16.65;100.00
32081;BME280;18593;51.426;7.030;2022-07-23T05:05:55;100767.47;;;16.77;100.00
32081;BME280;18593;51.426;7.030;2022-07-23T05:08:23;100763.41;;;16.87;100.00
32081;BME280;18593;51.426;7.030;2022-07-23T05:10:53;100768.81;;;17.00;100.00
32081;BME280;18593;51.426;7.030;2022-07-23T05:13:21;100762.19;;;17.14;100.00
32081;BME280;18593;51.426;7.030;2022-07-23T05:15:51;100764.63;;;17.29;100.00
32081;BME280;18593;51.426;7.030;2022-07-23T05:18:20;100767.59;;;17.28;100.00
32081;BME280;18593;51.426;7.030;2022-07-23T05:20:47;100770.16;;;17.23;100.00
32081;BME280;18593;51.426;7.030;2022-07-23T05:23:18;100772.25;;;17.27;100.00
32081;BME280;18593;51.426;7.030;2022-07-23T05:25:47;100774.31;;;17.32;100.00
32081;BME280;18593;51.426;7.030;2022-07-23T05:28:16;100776.78;;;17.40;100.00
32081;BME280;18593;51.426;7.030;2022-07-23T05:30:43;100777.59;;;17.47;100.00
32081;BME280;18593;51.426;7.030;2022-07-23T05:33:13;100780.09;;;17.55;100.00
32081;BME280;18593;51.426;7.030;2022-07-23T05:35:42;100787.66;;;17.60;100.00
32081;BME280;18593;51.426;7.030;2022-07-23T05:38:26;100789.72;;;17.65;100.00
32081;BME280;18593;51.426;7.030;2022-07-23T05:40:56;100796.75;;;17.61;100.00
32081;BME280;18593;51.426;7.030;2022-07-23T05:43:23;100791.84;;;17.63;100.00
32081;BME280;18593;51.426;7.030;2022-07-23T05:45:51;100788.84;;;17.71;100.00
32081;BME280;18593;51.426;7.030;2022-07-23T05:48:18;100794.50;;;17.76;100.00
32081;BME280;18593;51.426;7.030;2022-07-23T05:50:58;100791.91;;;17.81;100.00
32081;BME280;18593;51.426;7.030;2022-07-23T05:53:31;100787.25;;;17.82;100.00
32081;BME280;18593;51.426;7.030;2022-07-23T05:56:06;100797.78;;;17.91;100.00
32081;BME280;18593;51.426;7.030;2022-07-23T05:58:35;100803.94;;;18.12;100.00
32081;BME280;18593;51.426;7.030;2022-07-23T06:01:02;100801.97;;;18.56;100.00
32081;BME280;18593;51.426;7.030;2022-07-23T06:03:37;100798.84;;;19.85;100.00
32081;BME280;18593;51.426;7.030;2022-07-23T06:06:06;100802.56;;;20.26;100.00
32081;BME280;18593;51.426;7.030;2022-07-23T06:08:34;100803.78;;;19.95;100.00
32081;BME280;18593;51.426;7.030;2022-07-23T06:11:01;100795.44;;;20.42;100.00
32081;BME280;18593;51.426;7.030;2022-07-23T06:13:28;100807.50;;;20.01;100.00
32081;BME280;18593;51.426;7.030;2022-07-23T06:15:56;100801.84;;;19.72;100.00
32081;BME280;18593;51.426;7.030;2022-07-23T06:18:23;100798.91;;;21.31;100.00
32081;BME280;18593;51.426;7.030;2022-07-23T06:20:50;100805.31;;;22.77;90.50
32081;BME280;18593;51.426;7.030;2022-07-23T06:23:19;100812.34;;;21.39;96.37
32081;BME280;18593;51.426;7.030;2022-07-23T06:25:47;100811.03;;;23.69;86.18
32081;BME280;18593;51.426;7.030;2022-07-23T06:28:14;100816.00;;;22.90;86.08
32081;BME280;18593;51.426;7.030;2022-07-23T06:30:42;100814.94;;;21.74;92.15
32081;BME280;18593;51.426;7.030;2022-07-23T06:33:09;100816.72;;;20.94;100.00
32081;BME280;18593;51.426;7.030;2022-07-23T06:35:37;100811.31;;;20.47;98.91
32081;BME280;18593;51.426;7.030;2022-07-23T06:38:06;100812.78;;;20.38;100.00
32081;BME280;18593;51.426;7.030;2022-07-23T06:40:34;100811.31;;;20.47;100.00
32081;BME280;18593;51.426;7.030;2022-07-23T06:43:02;100818.03;;;20.51;100.00
32081;BME280;18593;51.426;7.030;2022-07-23T06:45:29;100811.91;;;20.49;100.00
32081;BME280;18593;51.426;7.030;2022-07-23T06:47:56;100817.72;;;20.36;100.00
32081;BME280;18593;51.426;7.030;2022-07-23T06:50:23;100824.06;;;20.01;100.00
32081;BME280;18593;51.426;7.030;2022-07-23T06:52:51;100827.56;;;20.08;100.00
32081;BME280;18593;51.426;7.030;2022-07-23T06:55:18;100821.66;;;20.16;100.00
32081;BME280;18593;51.426;7.030;2022-07-23T06:57:46;100823.25;;;20.36;100.00
32081;BME280;18593;51.426;7.030;2022-07-23T07:00:14;100811.31;;;20.47;100.00
32081;BME280;18593;51.426;7.030;2022-07-23T07:02:41;100814.44;;;20.39;100.00
32081;BME280;18593;51.426;7.030;2022-07-23T07:05:09;100825.25;;;20.52;100.00
32081;BME280;18593;51.426;7.030;2022-07-23T07:07:36;100823.06;;;20.54;100.00
32081;BME280;18593;51.426;7.030;2022-07-23T07:10:05;100833.69;;;20.34;100.00
32081;BME280;18593;51.426;7.030;2022-07-23T07:12:32;100826.00;;;20.12;100.00
32081;BME280;18593;51.426;7.030;2022-07-23T07:15:00;100832.00;;;19.85;100.00
32081;BME280;18593;51.426;7.030;2022-07-23T07:17:28;100830.25;;;19.61;100.00
32081;BME280;18593;51.426;7.030;2022-07-23T07:19:55;100825.41;;;19.44;100.00
32081;BME280;18593;51.426;7.030;2022-07-23T07:22:22;100832.00;;;19.43;100.00
32081;BME280;18593;51.426;7.030;2022-07-23T07:24:49;100839.78;;;19.34;100.00
32081;BME280;18593;51.426;7.030;2022-07-23T07:27:16;100831.50;;;19.34;100.00
32081;BME280;18593;51.426;7.030;2022-07-23T07:29:43;100842.94;;;19.38;100.00
32081;BME280;18593;51.426;7.030;2022-07-23T07:32:12;100841.84;;;19.39;100.00
32081;BME280;18593;51.426;7.030;2022-07-23T07:34:39;100838.31;;;19.32;100.00
32081;BME280;18593;51.426;7.030;2022-07-23T07:37:06;100841.75;;;19.16;100.00
32081;BME280;18593;51.426;7.030;2022-07-23T07:39:33;100842.00;;;19.14;100.00
32081;BME280;18593;51.426;7.030;2022-07-23T07:42:01;100847.94;;;19.29;100.00
32081;BME280;18593;51.426;7.030;2022-07-23T07:44:28;100857.13;;;19.53;100.00
32081;BME280;18593;51.426;7.030;2022-07-23T07:46:55;100857.25;;;19.59;100.00
32081;BME280;18593;51.426;7.030;2022-07-23T07:49:24;100851.50;;;19.60;100.00
32081;BME280;18593;51.426;7.030;2022-07-23T07:51:51;100847.41;;;19.63;100.00
32081;BME280;18593;51.426;7.030;2022-07-23T07:54:18;100852.69;;;19.64;100.00
32081;BME280;18593;51.426;7.030;2022-07-23T07:56:45;100852.53;;;19.47;100.00
32081;BME280;18593;51.426;7.030;2022-07-23T07:59:13;100863.47;;;19.42;100.00
32081;BME280;18593;51.426;7.030;2022-07-23T08:01:40;100861.16;;;19.39;100.00
32081;BME280;18593;51.426;7.030;2022-07-23T08:04:08;100864.88;;;19.33;100.00
32081;BME280;18593;51.426;7.030;2022-07-23T08:06:36;100869.78;;;19.31;100.00
32081;BME280;18593;51.426;7.030;2022-07-23T08:09:04;100868.19;;;19.53;100.00
32081;BME280;18593;51.426;7.030;2022-07-23T08:11:31;100870.66;;;19.85;100.00
32081;BME280;18593;51.426;7.030;2022-07-23T08:13:58;100872.50;;;20.15;100.00
32081;BME280;18593;51.426;7.030;2022-07-23T08:16:25;100879.09;;;20.14;100.00
32081;BME280;18593;51.426;7.030;2022-07-23T08:18:52;100876.09;;;19.92;100.00
32081;BME280;18593;51.426;7.030;2022-07-23T08:21:19;100881.00;;;19.78;100.00
32081;BME280;18593;51.426;7.030;2022-07-23T08:23:48;100873.19;;;19.99;100.00
32081;BME280;18593;51.426;7.030;2022-07-23T08:26:15;100883.19;;;20.23;100.00
32081;BME280;18593;51.426;7.030;2022-07-23T08:28:42;100876.09;;;20.27;100.00
32081;BME280;18593;51.426;7.030;2022-07-23T08:31:10;100881.88;;;20.38;98.84
32081;BME280;18593;51.426;7.030;2022-07-23T08:33:38;100881.50;;;20.46;95.50
32081;BME280;18593;51.426;7.030;2022-07-23T08:36:06;100881.75;;;20.56;95.50
32081;BME280;18593;51.426;7.030;2022-07-23T08:38:33;100881.88;;;20.73;96.93
32081;BME280;18593;51.426;7.030;2022-07-23T08:41:03;100884.41;;;20.75;93.08
32081;BME280;18593;51.426;7.030;2022-07-23T08:43:32;100887.75;;;20.77;93.43
32081;BME280;18593;51.426;7.030;2022-07-23T08:46:02;100881.72;;;20.92;96.81
32081;BME280;18593;51.426;7.030;2022-07-23T08:48:32;100886.84;;;21.00;98.04
32081;BME280;18593;51.426;7.030;2022-07-23T08:51:03;100887.13;;;20.98;98.67
32081;BME280;18593;51.426;7.030;2022-07-23T08:53:31;100885.19;;;20.99;95.52
32081;BME280;18593;51.426;7.030;2022-07-23T08:56:02;100885.66;;;20.96;98.12
32081;BME280;18593;51.426;7.030;2022-07-23T08:58:31;100888.44;;;20.96;93.52
32081;BME280;18593;51.426;7.030;2022-07-23T09:00:58;100890.09;;;21.08;95.95
32081;BME280;18593;51.426;7.030;2022-07-23T09:03:28;100884.28;;;21.22;100.00
32081;BME280;18593;51.426;7.030;2022-07-23T09:05:57;100897.03;;;21.23;98.29
32081;BME280;18593;51.426;7.030;2022-07-23T09:08:25;100896.53;;;21.26;94.96
32081;BME280;18593;51.426;7.030;2022-07-23T09:10:55;100904.47;;;21.22;92.94
32081;BME280;18593;51.426;7.030;2022-07-23T09:13:36;100897.56;;;21.08;86.10
32081;BME280;18593;51.426;7.030;2022-07-23T09:16:07;100894.13;;;20.89;82.36
32081;BME280;18593;51.426;7.030;2022-07-23T09:18:39;100900.13;;;20.86;85.06
32081;BME280;18593;51.426;7.030;2022-07-23T09:21:11;100894.34;;;20.87;83.19
32081;BME280;18593;51.426;7.030;2022-07-23T09:23:40;100890.16;;;20.85;80.58
32081;BME280;18593;51.426;7.030;2022-07-23T09:26:34;100897.97;;;20.88;87.58
32081;BME280;18593;51.426;7.030;2022-07-23T09:29:07;100897.09;;;20.99;88.37
32081;BME280;18593;51.426;7.030;2022-07-23T09:31:44;100911.56;;;20.89;79.77
32081;BME280;18593;51.426;7.030;2022-07-23T09:34:17;100910.97;;;20.76;77.87
32081;BME280;18593;51.426;7.030;2022-07-23T09:36:44;100910.25;;;20.80;81.00
32081;BME280;18593;51.426;7.030;2022-07-23T09:39:14;100908.22;;;20.76;78.01
32081;BME280;18593;51.426;7.030;2022-07-23T09:41:44;100908.25;;;20.64;74.94
32081;BME280;18593;51.426;7.030;2022-07-23T09:44:15;100898.34;;;20.80;77.83
32081;BME280;18593;51.426;7.030;2022-07-23T09:46:44;100895.19;;;20.88;80.02
32081;BME280;18593;51.426;7.030;2022-07-23T09:49:16;100897.09;;;20.99;80.80
32081;BME280;18593;51.426;7.030;2022-07-23T09:51:48;100891.69;;;21.04;81.98
32081;BME280;18593;51.426;7.030;2022-07-23T09:54:30;100891.16;;;21.07;80.88
32081;BME280;18593;51.426;7.030;2022-07-23T09:57:02;100894.19;;;21.06;76.30
32081;BME280;18593;51.426;7.030;2022-07-23T09:59:34;100899.69;;;21.18;80.93
32081;BME280;18593;51.426;7.030;2022-07-23T10:02:02;100898.00;;;21.17;78.42
32081;BME280;18593;51.426;7.030;2022-07-23T10:04:37;100901.03;;;21.03;72.02
32081;BME280;18593;51.426;7.030;2022-07-23T10:07:22;100899.63;;;21.01;73.76
32081;BME280;18593;51.426;7.030;2022-07-23T10:10:10;100899.97;;;21.04;73.79
32081;BME280;18593;51.426;7.030;2022-07-23T10:12:57;100897.31;;;21.09;74.94
32081;BME280;18593;51.426;7.030;2022-07-23T10:15:43;100894.34;;;21.28;84.08
32081;BME280;18593;51.426;7.030;2022-07-23T10:18:11;100897.34;;;21.38;82.07
32081;BME280;18593;51.426;7.030;2022-07-23T10:20:39;100904.06;;;21.42;79.16
32081;BME280;18593;51.426;7.030;2022-07-23T10:23:26;100897.56;;;21.48;84.68
32081;BME280;18593;51.426;7.030;2022-07-23T10:26:05;100899.72;;;21.46;76.54
32081;BME280;18593;51.426;7.030;2022-07-23T10:29:00;100892.41;;;21.40;78.99
32081;BME280;18593;51.426;7.030;2022-07-23T10:31:42;100898.63;;;21.47;80.18
32081;BME280;18593;51.426;7.030;2022-07-23T10:34:19;100887.75;;;21.58;76.55
32081;BME280;18593;51.426;7.030;2022-07-23T10:36:53;100899.13;;;21.44;77.38
32081;BME280;18593;51.426;7.030;2022-07-23T10:39:26;100890.69;;;21.39;73.86
32081;BME280;18593;51.426;7.030;2022-07-23T10:42:08;100893.72;;;21.38;73.36
32081;BME280;18593;51.426;7.030;2022-07-23T10:44:40;100878.03;;;21.43;74.78
32081;BME280;18593;51.426;7.030;2022-07-23T10:47:11;100879.88;;;21.50;72.94
32081;BME280;18593;51.426;7.030;2022-07-23T10:49:53;100887.56;;;21.47;72.54
32081;BME280;18593;51.426;7.030;2022-07-23T10:52:23;100887.94;;;21.39;70.96
32081;BME280;18593;51.426;7.030;2022-07-23T10:54:53;100888.69;;;21.35;70.62
32081;BME280;18593;51.426;7.030;2022-07-23T10:57:22;100879.50;;;21.46;71.85
32081;BME280;18593;51.426;7.030;2022-07-23T11:00:15;100886.28;;;21.67;76.58
32081;BME280;18593;51.426;7.030;2022-07-23T11:02:46;100888.88;;;21.74;73.39
32081;BME280;18593;51.426;7.030;2022-07-23T11:05:16;100886.84;;;21.69;69.47
32081;BME280;18593;51.426;7.030;2022-07-23T11:08:13;100881.91;;;21.71;71.37
32081;BME280;18593;51.426;7.030;2022-07-23T11:10:51;100879.13;;;21.71;69.25
32081;BME280;18593;51.426;7.030;2022-07-23T11:13:37;100882.38;;;21.68;71.38
32081;BME280;18593;51.426;7.030;2022-07-23T11:16:08;100881.06;;;21.71;71.96
32081;BME280;18593;51.426;7.030;2022-07-23T11:19:05;100889.78;;;21.79;69.11
32081;BME280;18593;51.426;7.030;2022-07-23T11:21:46;100883.25;;;21.85;72.76
32081;BME280;18593;51.426;7.030;2022-07-23T11:24:33;100886.44;;;21.77;72.41
32081;BME280;18593;51.426;7.030;2022-07-23T11:27:37;100882.38;;;21.68;70.38
32081;BME280;18593;51.426;7.030;2022-07-23T11:30:06;100874.44;;;21.72;70.44
32081;BME280;18593;51.426;7.030;2022-07-23T11:32:39;100883.91;;;21.76;69.60
32081;BME280;18593;51.426;7.030;2022-07-23T11:35:24;100883.75;;;21.82;71.43
32081;BME280;18593;51.426;7.030;2022-07-23T11:37:53;100873.69;;;21.93;73.40
32081;BME280;18593;51.426;7.030;2022-07-23T11:40:25;100882.31;;;21.97;75.54
32081;BME280;18593;51.426;7.030;2022-07-23T11:42:57;100881.34;;;22.03;74.11
32081;BME280;18593;51.426;7.030;2022-07-23T11:45:34;100877.31;;;22.11;73.74
32081;BME280;18593;51.426;7.030;2022-07-23T11:48:02;100880.91;;;22.11;70.80
32081;BME280;18593;51.426;7.030;2022-07-23T11:50:32;100882.91;;;22.16;71.43
32081;BME280;18593;51.426;7.030;2022-07-23T11:53:00;100875.75;;;22.20;73.65
32081;BME280;18593;51.426;7.030;2022-07-23T11:55:27;100883.47;;;22.30;72.78
32081;BME280;18593;51.426;7.030;2022-07-23T11:57:55;100879.97;;;22.22;73.54
32081;BME280;18593;51.426;7.030;2022-07-23T12:00:25;100881.94;;;22.22;72.98
32081;BME280;18593;51.426;7.030;2022-07-23T12:02:56;100883.97;;;22.27;71.17
32081;BME280;18593;51.426;7.030;2022-07-23T12:05:27;100882.59;;;22.29;72.33
32081;BME280;18593;51.426;7.030;2022-07-23T12:07:58;100877.38;;;22.33;71.30
32081;BME280;18593;51.426;7.030;2022-07-23T12:10:27;100870.19;;;22.32;71.07
32081;BME280;18593;51.426;7.030;2022-07-23T12:12:57;100879.56;;;22.31;67.56
32081;BME280;18593;51.426;7.030;2022-07-23T12:15:28;100872.88;;;22.27;67.30
32081;BME280;18593;51.426;7.030;2022-07-23T12:17:58;100871.78;;;22.28;67.05
32081;BME280;18593;51.426;7.030;2022-07-23T12:20:31;100866.69;;;22.24;67.96
32081;BME280;18593;51.426;7.030;2022-07-23T12:23:02;100871.78;;;22.28;69.32
32081;BME280;18593;51.426;7.030;2022-07-23T12:25:32;100871.34;;;22.36;71.56
32081;BME280;18593;51.426;7.030;2022-07-23T12:28:04;100868.66;;;22.41;71.14
32081;BME280;18593;51.426;7.030;2022-07-23T12:30:37;100871.47;;;22.46;71.75
32081;BME280;18593;51.426;7.030;2022-07-23T12:33:06;100865.53;;;22.54;72.71
32081;BME280;18593;51.426;7.030;2022-07-23T12:35:37;100864.50;;;22.60;69.13
32081;BME280;18593;51.426;7.030;2022-07-23T12:38:10;100872.47;;;22.57;69.27
32081;BME280;18593;51.426;7.030;2022-07-23T12:40:42;100875.34;;;22.62;70.02
32081;BME280;18593;51.426;7.030;2022-07-23T12:43:11;100870.78;;;22.56;70.39
32081;BME280;18593;51.426;7.030;2022-07-23T12:45:45;100873.56;;;22.56;71.58
32081;BME280;18593;51.426;7.030;2022-07-23T12:48:19;100874.41;;;22.56;65.54
32081;BME280;18593;51.426;7.030;2022-07-23T12:50:55;100880.56;;;22.58;65.63
32081;BME280;18593;51.426;7.030;2022-07-23T12:53:26;100880.38;;;22.48;65.62
32081;BME280;18593;51.426;7.030;2022-07-23T12:56:01;100885.19;;;22.53;65.85
32081;BME280;18593;51.426;7.030;2022-07-23T12:58:41;100884.75;;;22.61;64.73
32081;BME280;18593;51.426;7.030;2022-07-23T13:01:09;100880.69;;;22.69;65.82